Terminal Aerodrome Forecast
Issued by NWS Chicago, IL

Home | Current Version | Previous Version | Graphics & Text | Print | Product List | Glossary On
Versions: 1 2 3 4 5 6 7 8 9 10 11 12 13 14 15 16 17 18 19 20 21 22 23 24
787
FTUS43 KLOT 150538
TAFRFD
TAF
KRFD 150538Z 1506/1606 20013G20KT P6SM VCTS SCT050CB BKN100
      TEMPO 1506/1507 3SM -SHRA BR SCT015 BKN050
     FM150900 29022G30KT P6SM VCSH SCT007 OVC012
     FM151500 32019G28KT P6SM BKN018
     FM151900 32014G22KT P6SM BKN025
     FM152300 31010KT P6SM BKN035
     FM160200 30005KT P6SM SCT250=

USA.gov is the U.S. government's official web portal to all federal, state and local government web resources and services.